Aérodrome :
LOGIN :

S'inscrire | Disclaimer

   EN    FR    IT 

 










Légende :    VFR   VFR Marginal   IFR   IFR Intensif   IFR Très Intensif
Visi : 
Plafond : 
>= 8 km
>= 3000ft
5 à 8 km
1000 à 3000 ft
1500m à 5 km
500 à 1000 ft
800 à 1500m
200 à 500 ft
< 800m
< 200 ft
Symboles :   Orages  Brouillard  Fortes neiges  Fortes précipitations  Vent > 20 kt
SIGMETs :   Divers  Orages  Givrage  Turbulence  Onde Orograph.  Cendres Volcan.







- Altitude de l'aérodrome : 1115 ft
- Code IATA : GRZ


LOWG - Graz

DERNIER METAR :
  • 151650Z VRB02KT 9999 FEW070 BKN170 12/07 Q1022 NOSIG

METARs EXPIRÉS :
  • 151620Z VRB01KT CAVOK 13/07 Q1021 NOSIG
  • 151550Z 00000KT CAVOK 13/07 Q1022 NOSIG
  • 151520Z VRB01KT CAVOK 14/06 Q1022 NOSIG
  • 151450Z 23002KT CAVOK 14/06 Q1021 NOSIG
  • 151420Z 22003KT 180V240 9999 FEW070 BKN170 14/06 Q1021 NOSIG

TAF TAF LOWG
Valide du 15 à 12h jusqu'au 16 à 12h UTC


151115Z 1512/1612 15003KT 9999 FEW070 SCT110 TX17/1513Z TN06/1605Z
TEMPO 1523/1607 4000 BR
PROB30
TEMPO 1601/1606 0400 BCFG FEW001
Pas de NOTAMs connus pour ce terrain.



MET'MAP, la Météo Aéronautique d'un coup d'oeil ! - Copyright ORBIFLY Décembre 2007 - Disclaimer

ORBIFLY MET'MAP TEAM :

Programmation & Développement : Alexandra Zaïnal
Conception & Développement : Baudouin d'Aumeries
Co-Programmation & Développement : Marc-Olivier Méhu
Soutien technique & logistique : Manuel Goepfert

Contact : metmap@orbifly.com




SOURCES & CREDITS :

   NOAA